Página principal
METAR-TAF:

METAR-TAF

Aeroportos :

Burgos, Espanha

latitude: 42-22N, longitude: 003-38W, altura: 894 m

Observação actual do tempo

O boletim foi feito há 22 minutos, às 05:30 UTC
Vento 2 kt de este
Temperatura 8°C
Humidade 100%
Pressão 1013 hPa
Visibilidade: 0400 m
Nuvens fragmentadasa uma altura de 200 ft
bancos de nevoeiro

METAR: LEBG 260530Z 08002KT 0800 0400SE R22/1000U R04/1600U BCFG BKN002 08/08 Q1013

Hora: 07:52 (05:52 UTC)


TAF: em falta

Observações e previsões do tempo de mais de 4000 aeroportos (mensagens METAR e TAF).

As estações disponíveis são os pontos amarelos e vermelhos sobre o mapa.

Mova o rato sobre o mapa para ver o nome da estação.

Depois clique no ponto para visualizar as observações e previsões meteorológicas.

Para alterar o mapa : clique nos botões verdes com uma cruz preta para aumentar o zoom; no botão verde com uma pitada de zoom; ou nas setas verdes para mapas adjacentes.


METAR-TAF: